Time;durP1;ratioP1;P1;durP2;ratioP2;P2;SDS_P1;SDS_P2;PMS_P1;PMS_P2;Temp;Humidity;BMP_temperature;BMP_pressure;BME280_temperature;BME280_humidity;BME280_pressure;Samples;Min_cycle;Max_cycle;Signal;HPM_P1;HPM_P2
2022/03/26 00:00:50;;;;;;;;;;;;;;;15.66;42.39;101945.16;4919337;28;122618;-67
2022/03/26 00:03:16;;;;;;;;;;;;;;;15.65;42.53;101940.00;4919914;28;128827;-61
2022/03/26 00:05:43;;;;;;;;;;;;;;;15.61;42.58;101933.44;4920023;28;98408;-67
2022/03/26 00:08:09;;;;;;;;;;;;;;;15.59;42.34;101941.84;4919670;28;99233;-61
2022/03/26 00:10:36;;;;;;;;;;;;;;;15.58;42.79;101948.38;4919361;28;119657;-66
2022/03/26 00:13:03;;;;;;;;;;;;;;;15.56;42.80;101938.84;4920478;28;98966;-62
2022/03/26 00:15:29;;;;;;;;;;;;;;;15.54;42.63;101939.09;4920971;28;97889;-62
2022/03/26 00:17:55;;;;;;;;;;;;;;;15.50;42.61;101935.28;4917946;28;127498;-67
2022/03/26 00:20:21;;;;;;;;;;;;;;;15.49;42.86;101935.56;4920896;28;97910;-67
2022/03/26 00:22:47;;;;;;;;;;;;;;;15.46;42.53;101935.00;4919986;28;99210;-62
2022/03/26 00:25:17;;;;;;;;;;;;;;;15.43;42.65;101932.81;4931018;28;98725;-62
2022/03/26 00:27:43;;;;;;;;;;;;;;;15.42;42.74;101936.59;4930715;28;98091;-62
2022/03/26 00:30:11;;;;;;;;;;;;;;;15.40;43.04;101941.47;4918880;28;114458;-62
2022/03/26 00:32:37;;;;;;;;;;;;;;;15.38;42.56;101935.50;4921192;28;98257;-62
2022/03/26 00:35:04;;;;;;;;;;;;;;;15.36;43.01;101940.38;4919894;28;118398;-62
2022/03/26 00:37:29;;;;;;;;;;;;;;;15.35;43.02;101941.47;4919274;28;119312;-66
2022/03/26 00:39:56;;;;;;;;;;;;;;;15.33;43.17;101942.81;4919655;28;122071;-62
2022/03/26 00:42:22;;;;;;;;;;;;;;;15.30;43.17;101944.16;4919724;28;99137;-62
2022/03/26 00:44:48;;;;;;;;;;;;;;;15.29;43.08;101944.41;4920089;28;98352;-66
2022/03/26 00:47:14;;;;;;;;;;;;;;;15.26;42.85;101945.75;4903325;28;108160;-62
2022/03/26 00:49:40;;;;;;;;;;;;;;;15.25;43.09;101943.28;4919361;28;124174;-62
2022/03/26 00:52:06;;;;;;;;;;;;;;;15.23;42.97;101936.22;4919757;28;127490;-66
2022/03/26 00:54:32;;;;;;;;;;;;;;;15.22;42.75;101942.75;4918547;28;124977;-62
2022/03/26 00:56:58;;;;;;;;;;;;;;;15.21;43.08;101945.75;4920524;28;97878;-62
2022/03/26 00:59:27;;;;;;;;;;;;;;;15.18;42.83;101940.81;4919951;28;97861;-62
2022/03/26 01:01:53;;;;;;;;;;;;;;;15.16;43.01;101943.78;4902927;28;98668;-65
2022/03/26 01:04:19;;;;;;;;;;;;;;;15.14;42.86;101939.72;4918458;28;98640;-66
2022/03/26 01:06:45;;;;;;;;;;;;;;;15.13;42.93;101940.78;4917561;28;97796;-62
2022/03/26 01:09:11;;;;;;;;;;;;;;;15.10;42.98;101934.00;4919747;28;113945;-66
2022/03/26 01:11:37;;;;;;;;;;;;;;;15.07;42.88;101931.78;4919392;28;128718;-66
2022/03/26 01:14:03;;;;;;;;;;;;;;;15.06;42.96;101937.50;4920227;28;100234;-62
2022/03/26 01:16:30;;;;;;;;;;;;;;;15.03;43.07;101930.69;4918918;28;127686;-62
2022/03/26 01:18:56;;;;;;;;;;;;;;;15.03;43.24;101940.72;4920081;28;97727;-65
2022/03/26 01:21:22;;;;;;;;;;;;;;;15.01;43.11;101940.16;4918275;28;126102;-66
2022/03/26 01:23:48;;;;;;;;;;;;;;;14.99;43.42;101940.44;4919051;28;128108;-62
2022/03/26 01:26:14;;;;;;;;;;;;;;;14.97;43.06;101945.28;4937128;28;126896;-65
2022/03/26 01:28:40;;;;;;;;;;;;;;;14.95;43.33;101939.31;4922045;28;98146;-62
2022/03/26 01:31:06;;;;;;;;;;;;;;;14.92;43.36;101935.22;4920228;28;98474;-66
2022/03/26 01:33:32;;;;;;;;;;;;;;;14.90;43.53;101934.69;4918843;28;126808;-62
2022/03/26 01:35:58;;;;;;;;;;;;;;;14.88;43.08;101934.09;4920480;28;98477;-65
2022/03/26 01:38:24;;;;;;;;;;;;;;;14.87;43.03;101932.47;4919214;28;121543;-65
2022/03/26 01:40:50;;;;;;;;;;;;;;;14.85;43.42;101931.09;4919433;28;118039;-62
2022/03/26 01:43:16;;;;;;;;;;;;;;;14.84;43.22;101929.47;4918061;28;127289;-61
2022/03/26 01:45:42;;;;;;;;;;;;;;;14.82;43.50;101935.16;4918485;28;121412;-62
2022/03/26 01:48:08;;;;;;;;;;;;;;;14.80;43.53;101937.31;4920834;28;97821;-62
2022/03/26 01:50:34;;;;;;;;;;;;;;;14.78;43.59;101931.34;4900672;28;128687;-62
2022/03/26 01:53:00;;;;;;;;;;;;;;;14.77;43.32;101931.56;4918861;28;127032;-66
2022/03/26 01:55:26;;;;;;;;;;;;;;;14.74;43.40;101922.06;4918010;28;108817;-66
2022/03/26 01:57:53;;;;;;;;;;;;;;;14.71;43.40;101926.13;4918564;28;120279;-62
2022/03/26 02:00:19;;;;;;;;;;;;;;;14.70;43.40;101926.38;4919394;28;98410;-66
2022/03/26 02:02:45;;;;;;;;;;;;;;;14.67;43.39;101916.03;4916488;28;128171;-61
2022/03/26 02:05:15;;;;;;;;;;;;;;;14.66;43.68;101912.50;4919179;28;97656;-66
2022/03/26 02:07:42;;;;;;;;;;;;;;;14.63;43.49;101907.59;4918605;28;114930;-62
2022/03/26 02:10:09;;;;;;;;;;;;;;;14.61;43.58;101909.75;4919086;28;100568;-62
2022/03/26 02:12:36;;;;;;;;;;;;;;;14.59;43.43;101903.78;4919630;28;98697;-62
2022/03/26 02:15:02;;;;;;;;;;;;;;;14.58;43.83;101906.72;4921085;28;98431;-62
2022/03/26 02:17:28;;;;;;;;;;;;;;;14.56;43.46;101904.28;4923418;28;97969;-62
2022/03/26 02:19:55;;;;;;;;;;;;;;;14.55;43.51;101908.09;4921762;28;119382;-66
2022/03/26 02:22:22;;;;;;;;;;;;;;;14.53;43.32;101914.84;4921772;28;106959;-66
2022/03/26 02:24:48;;;;;;;;;;;;;;;14.50;43.43;101913.44;4930777;28;98925;-66
2022/03/26 02:27:14;;;;;;;;;;;;;;;14.48;43.35;101916.41;4937494;28;97780;-66
2022/03/26 02:29:40;;;;;;;;;;;;;;;14.46;43.50;101913.13;4920634;28;98474;-62
2022/03/26 02:32:06;;;;;;;;;;;;;;;14.45;43.86;101907.94;4922890;28;128002;-65
2022/03/26 02:34:32;;;;;;;;;;;;;;;14.43;43.44;101905.50;4920836;28;116662;-62
2022/03/26 02:36:59;;;;;;;;;;;;;;;14.41;43.51;101907.66;4921471;28;116919;-62
2022/03/26 02:39:25;;;;;;;;;;;;;;;14.41;43.82;101901.41;4921342;28;113226;-66
2022/03/26 02:41:51;;;;;;;;;;;;;;;14.38;43.68;101904.63;4924932;28;98543;-66
2022/03/26 02:44:17;;;;;;;;;;;;;;;14.36;43.80;101904.09;4921573;28;105024;-66
2022/03/26 02:46:46;;;;;;;;;;;;;;;14.36;44.04;101904.09;4921106;28;112806;-62
2022/03/26 02:49:12;;;;;;;;;;;;;;;14.34;43.91;101898.09;4921937;28;98748;-61
2022/03/26 02:51:39;;;;;;;;;;;;;;;14.32;43.75;101901.06;4921324;28;97979;-66
2022/03/26 02:54:05;;;;;;;;;;;;;;;14.30;43.90;101896.97;4903003;28;98144;-67
2022/03/26 02:56:31;;;;;;;;;;;;;;;14.29;43.92;101900.75;4902290;28;123045;-65
2022/03/26 02:58:57;;;;;;;;;;;;;;;14.27;43.61;101900.22;4919833;28;128323;-65
2022/03/26 03:01:23;;;;;;;;;;;;;;;14.27;43.79;101900.22;4920862;28;98233;-65
2022/03/26 03:03:50;;;;;;;;;;;;;;;14.24;43.83;101901.53;4921633;28;98430;-66
2022/03/26 03:06:16;;;;;;;;;;;;;;;14.22;44.01;101900.97;4920483;28;121563;-66
2022/03/26 03:08:42;;;;;;;;;;;;;;;14.20;43.82;101901.22;4922066;28;98512;-67
2022/03/26 03:11:08;;;;;;;;;;;;;;;14.20;43.85;101900.41;4920308;28;98655;-66
2022/03/26 03:13:35;;;;;;;;;;;;;;;14.18;43.71;101902.56;4921511;28;99432;-62
2022/03/26 03:16:01;;;;;;;;;;;;;;;14.17;43.97;101903.63;4903710;28;110377;-62
2022/03/26 03:18:26;;;;;;;;;;;;;;;14.15;43.85;101892.25;4920538;28;127652;-63
2022/03/26 03:20:52;;;;;;;;;;;;;;;14.13;44.00;101897.09;4919385;28;127439;-65
2022/03/26 03:23:18;;;;;;;;;;;;;;;14.12;43.88;101900.88;4920420;28;126520;-62
2022/03/26 03:25:45;;;;;;;;;;;;;;;14.09;44.05;101904.91;4935818;28;121975;-66
2022/03/26 03:28:10;;;;;;;;;;;;;;;14.08;43.83;101910.59;4927867;28;98462;-62
2022/03/26 03:30:36;;;;;;;;;;;;;;;14.06;43.81;101912.75;4918225;28;125635;-67
2022/03/26 03:33:02;;;;;;;;;;;;;;;14.04;44.14;101910.28;4920914;28;127471;-61
2022/03/26 03:35:28;;;;;;;;;;;;;;;14.02;44.32;101901.59;4919329;28;98122;-62
2022/03/26 03:37:54;;;;;;;;;;;;;;;14.01;43.93;101902.66;4921296;28;102116;-62
2022/03/26 03:40:20;;;;;;;;;;;;;;;13.99;43.88;101902.13;4919562;28;127385;-66
2022/03/26 03:42:46;;;;;;;;;;;;;;;13.96;44.17;101899.91;4918232;28;128721;-67
2022/03/26 03:45:12;;;;;;;;;;;;;;;13.95;44.06;101900.97;4901897;28;122645;-66
2022/03/26 03:47:38;;;;;;;;;;;;;;;13.94;44.09;101899.34;4918910;28;98120;-66
2022/03/26 03:50:05;;;;;;;;;;;;;;;13.92;44.14;101909.63;4919932;28;98714;-61
2022/03/26 03:52:31;;;;;;;;;;;;;;;13.90;44.00;101907.16;4921876;28;98780;-62
2022/03/26 03:54:57;;;;;;;;;;;;;;;13.89;44.08;101896.59;4921746;28;97822;-62
2022/03/26 03:57:23;;;;;;;;;;;;;;;13.87;44.34;101888.72;4919687;28;128829;-62
2022/03/26 03:59:48;;;;;;;;;;;;;;;13.86;44.13;101894.38;4918689;28;129291;-61
2022/03/26 04:02:14;;;;;;;;;;;;;;;13.85;44.18;101892.75;4920278;28;126943;-62
2022/03/26 04:04:41;;;;;;;;;;;;;;;13.83;44.30;101892.97;4920399;28;123548;-62
2022/03/26 04:07:08;;;;;;;;;;;;;;;13.81;44.17;101894.31;4919387;28;98366;-61
2022/03/26 04:09:34;;;;;;;;;;;;;;;13.79;44.33;101889.16;4920709;28;98221;-66
2022/03/26 04:12:00;;;;;;;;;;;;;;;13.78;44.18;101897.53;4921275;28;97968;-61
2022/03/26 04:14:26;;;;;;;;;;;;;;;13.74;43.99;101889.91;4920507;28;120827;-65
2022/03/26 04:16:52;;;;;;;;;;;;;;;13.74;44.19;101889.09;4921653;28;98425;-62
2022/03/26 04:19:18;;;;;;;;;;;;;;;13.72;44.26;101891.25;4919684;28;126273;-62
2022/03/26 04:21:45;;;;;;;;;;;;;;;13.70;44.11;101896.91;4920336;28;120303;-66
2022/03/26 04:24:12;;;;;;;;;;;;;;;13.69;44.27;101895.28;4920431;28;120737;-66
2022/03/26 04:26:38;;;;;;;;;;;;;;;13.68;44.25;101896.38;4920807;28;98299;-65
2022/03/26 04:29:04;;;;;;;;;;;;;;;13.66;44.38;101893.06;4920287;28;99201;-61
2022/03/26 04:31:30;;;;;;;;;;;;;;;13.63;44.25;101888.16;4920394;28;98040;-65
2022/03/26 04:34:01;;;;;;;;;;;;;;;13.62;44.43;101894.66;4919820;28;121387;-66
2022/03/26 04:36:27;;;;;;;;;;;;;;;13.61;44.20;101893.03;4919581;28;98642;-66
2022/03/26 04:38:53;;;;;;;;;;;;;;;13.60;44.38;101909.53;4920859;28;98501;-65
2022/03/26 04:41:19;;;;;;;;;;;;;;;13.58;44.04;101904.34;4919441;28;98302;-61
2022/03/26 04:43:45;;;;;;;;;;;;;;;13.56;44.36;101911.09;4920878;28;107870;-66
2022/03/26 04:46:11;;;;;;;;;;;;;;;13.56;44.17;101905.66;4919844;28;98435;-66
2022/03/26 04:48:37;;;;;;;;;;;;;;;13.55;44.29;101907.56;4917566;28;115161;-66
2022/03/26 04:51:03;;;;;;;;;;;;;;;13.53;44.25;101909.72;4919478;28;97905;-65
2022/03/26 04:53:29;;;;;;;;;;;;;;;13.53;44.38;101914.31;4916718;28;124090;-68
2022/03/26 04:55:55;;;;;;;;;;;;;;;13.51;44.22;101918.09;4919957;28;98143;-68
2022/03/26 04:58:21;;;;;;;;;;;;;;;13.51;44.25;101906.44;4918849;28;127981;-61
2022/03/26 05:00:47;;;;;;;;;;;;;;;13.50;44.34;101908.31;4919931;28;97841;-62
2022/03/26 05:03:13;;;;;;;;;;;;;;;13.48;44.27;101915.91;4920224;28;121836;-67
2022/03/26 05:05:39;;;;;;;;;;;;;;;13.49;44.49;101909.41;4919679;28;98303;-66
2022/03/26 05:08:05;;;;;;;;;;;;;;;13.49;44.49;101914.81;4920160;28;109675;-62
2022/03/26 05:10:31;;;;;;;;;;;;;;;13.50;44.43;101915.63;4900914;28;127131;-61
2022/03/26 05:12:58;;;;;;;;;;;;;;;13.51;44.35;101917.25;4918563;28;123358;-62
2022/03/26 05:15:24;;;;;;;;;;;;;;;13.51;44.36;101923.50;4919532;28;98543;-62
2022/03/26 05:17:51;;;;;;;;;;;;;;;13.53;44.46;101922.44;4919924;28;98543;-66
2022/03/26 05:20:18;;;;;;;;;;;;;;;13.54;44.33;101924.91;4917398;28;98069;-62
2022/03/26 05:22:45;;;;;;;;;;;;;;;13.55;44.12;101918.41;4919784;28;97871;-66
2022/03/26 05:25:11;;;;;;;;;;;;;;;13.58;44.30;101920.63;4920291;28;99734;-66
2022/03/26 05:27:37;;;;;;;;;;;;;;;13.60;44.60;101909.53;4924019;28;98651;-62
2022/03/26 05:30:07;;;;;;;;;;;;;;;13.63;44.26;101914.44;4918823;28;106068;-66
2022/03/26 05:32:34;;;;;;;;;;;;;;;13.66;44.23;101919.34;4919583;28;97926;-66
2022/03/26 05:35:00;;;;;;;;;;;;;;;13.70;44.32;101923.19;4919251;28;99174;-62
2022/03/26 05:37:26;;;;;;;;;;;;;;;13.74;44.36;101921.63;4918373;28;128353;-62
2022/03/26 05:39:51;;;;;;;;;;;;;;;13.79;44.21;101924.38;4917700;28;127546;-66
2022/03/26 05:42:18;;;;;;;;;;;;;;;13.84;44.42;101918.22;4918781;28;122388;-61
2022/03/26 05:44:44;;;;;;;;;;;;;;;13.88;44.05;101917.44;4919623;28;98127;-67
2022/03/26 05:47:10;;;;;;;;;;;;;;;13.93;43.96;101920.22;4918328;28;129304;-62
2022/03/26 05:49:36;;;;;;;;;;;;;;;13.98;44.14;101920.25;4920243;28;98026;-66
2022/03/26 05:52:02;;;;;;;;;;;;;;;14.04;44.05;101920.31;4920946;28;98044;-67
2022/03/26 05:54:28;;;;;;;;;;;;;;;14.08;44.05;101916.03;4921687;28;122093;-62
2022/03/26 05:56:54;;;;;;;;;;;;;;;14.15;44.13;101928.31;4922970;28;98864;-66
2022/03/26 05:59:23;;;;;;;;;;;;;;;14.21;43.94;101929.97;4921617;28;127451;-66
2022/03/26 06:01:49;;;;;;;;;;;;;;;14.29;44.04;101928.69;4921552;28;99596;-66
2022/03/26 06:04:16;;;;;;;;;;;;;;;14.38;44.12;101931.75;4920019;28;98794;-62
2022/03/26 06:06:42;;;;;;;;;;;;;;;14.45;43.91;101935.09;4922435;28;98404;-66
2022/03/26 06:09:09;;;;;;;;;;;;;;;14.53;44.10;101931.94;4922565;28;98393;-66
2022/03/26 06:11:34;;;;;;;;;;;;;;;14.59;44.03;101928.19;4921989;28;102231;-67
2022/03/26 06:14:00;;;;;;;;;;;;;;;14.67;43.86;101935.03;4919503;28;98453;-62
2022/03/26 06:16:26;;;;;;;;;;;;;;;14.75;43.89;101936.47;4917409;28;128741;-66
2022/03/26 06:18:52;;;;;;;;;;;;;;;14.82;44.00;101937.06;4918482;28;127261;-67
2022/03/26 06:21:18;;;;;;;;;;;;;;;14.90;43.83;101945.53;4915908;28;121596;-68
2022/03/26 06:23:44;;;;;;;;;;;;;;;15.00;43.78;101941.25;4918232;28;126305;-67
2022/03/26 06:26:10;;;;;;;;;;;;;;;15.08;43.87;101938.84;4920282;28;126722;-62
2022/03/26 06:28:37;;;;;;;;;;;;;;;15.17;44.16;101934.59;4917797;28;98125;-62
2022/03/26 06:31:03;;;;;;;;;;;;;;;15.26;43.76;101937.63;4929514;28;98217;-68
2022/03/26 06:33:29;;;;;;;;;;;;;;;15.38;44.23;101937.41;4931128;28;98160;-67
2022/03/26 06:35:55;;;;;;;;;;;;;;;15.52;44.22;101945.88;4928471;28;128157;-63
2022/03/26 06:38:21;;;;;;;;;;;;;;;15.66;44.14;101947.06;4933183;28;124915;-62
2022/03/26 06:40:47;;;;;;;;;;;;;;;15.84;43.76;101949.31;4934210;28;98233;-68
2022/03/26 06:43:13;;;;;;;;;;;;;;;15.96;43.79;101949.09;4937570;28;98114;-62
2022/03/26 06:45:40;;;;;;;;;;;;;;;16.09;43.99;101955.91;4937540;28;98551;-66
2022/03/26 06:48:06;;;;;;;;;;;;;;;16.23;44.00;101954.31;4934365;28;98983;-66
2022/03/26 06:50:32;;;;;;;;;;;;;;;16.39;43.98;101966.03;4923065;28;121289;-62
2022/03/26 06:52:59;;;;;;;;;;;;;;;16.50;43.84;101964.13;4920138;28;128916;-67
2022/03/26 06:55:25;;;;;;;;;;;;;;;16.57;44.11;101965.50;4937696;28;99330;-66
2022/03/26 06:57:51;;;;;;;;;;;;;;;16.71;43.87;101954.91;4930214;28;121372;-67
2022/03/26 07:00:17;;;;;;;;;;;;;;;16.81;44.03;101949.47;4928133;28;123036;-67
2022/03/26 07:02:43;;;;;;;;;;;;;;;16.87;44.06;101942.13;4934190;28;98905;-67
2022/03/26 07:05:10;;;;;;;;;;;;;;;16.95;44.51;101946.19;4937536;28;98314;-67
2022/03/26 07:07:36;;;;;;;;;;;;;;;17.00;44.32;101944.28;4924557;28;103662;-67
2022/03/26 07:10:02;;;;;;;;;;;;;;;17.08;44.44;101940.19;4930612;28;123450;-62
2022/03/26 07:12:29;;;;;;;;;;;;;;;17.16;44.53;101937.69;4934410;28;99442;-67
2022/03/26 07:14:55;;;;;;;;;;;;;;;17.26;44.51;101952.41;4936818;28;99595;-67
2022/03/26 07:17:21;;;;;;;;;;;;;;;17.35;44.60;101948.81;4930994;28;105592;-62
2022/03/26 07:19:47;;;;;;;;;;;;;;;17.46;44.60;101951.53;4936450;28;98035;-66
2022/03/26 07:22:13;;;;;;;;;;;;;;;17.57;44.60;101953.13;4934295;28;125645;-62
2022/03/26 07:24:39;;;;;;;;;;;;;;;17.67;44.63;101953.06;4939069;28;122092;-67
2022/03/26 07:27:05;;;;;;;;;;;;;;;17.79;44.52;101948.13;4943683;28;98555;-62
2022/03/26 07:29:32;;;;;;;;;;;;;;;17.90;44.61;101952.44;4929128;28;97855;-62
2022/03/26 07:31:58;;;;;;;;;;;;;;;18.04;44.50;101958.13;4934291;28;98971;-62
2022/03/26 07:34:26;;;;;;;;;;;;;;;18.21;44.48;101956.94;4928705;28;127192;-62
2022/03/26 07:36:52;;;;;;;;;;;;;;;18.39;44.24;101956.22;4933527;28;98817;-62
2022/03/26 07:39:18;;;;;;;;;;;;;;;18.57;44.21;101952.81;4924485;28;98041;-62
2022/03/26 07:41:44;;;;;;;;;;;;;;;18.76;44.10;101963.09;4934766;28;122736;-67
2022/03/26 07:44:10;;;;;;;;;;;;;;;18.96;44.11;101959.34;4927122;28;128065;-62
2022/03/26 07:46:36;;;;;;;;;;;;;;;19.20;43.78;101959.38;4923801;28;128640;-68
2022/03/26 07:49:02;;;;;;;;;;;;;;;19.44;43.72;101964.88;4933708;28;122649;-67
2022/03/26 07:51:28;;;;;;;;;;;;;;;19.74;43.58;101958.25;4931860;28;117657;-67
2022/03/26 07:53:54;;;;;;;;;;;;;;;20.06;43.34;101950.13;4930856;28;128182;-63
2022/03/26 07:56:20;;;;;;;;;;;;;;;20.45;42.99;101954.47;4910961;28;109939;-67
2022/03/26 07:58:47;;;;;;;;;;;;;;;20.89;42.63;101949.69;4916484;28;116884;-62
2022/03/26 08:01:13;;;;;;;;;;;;;;;21.37;42.19;101960.31;4936651;28;97953;-69
2022/03/26 08:03:39;;;;;;;;;;;;;;;21.88;41.70;101954.56;4929970;28;128332;-63
2022/03/26 08:06:05;;;;;;;;;;;;;;;22.40;41.39;101955.09;4934553;28;97948;-63
2022/03/26 08:08:31;;;;;;;;;;;;;;;22.91;40.81;101953.81;4931430;28;121714;-68
2022/03/26 08:10:56;;;;;;;;;;;;;;;23.46;40.71;101955.31;4927543;28;128235;-63
2022/03/26 08:13:22;;;;;;;;;;;;;;;24.02;40.39;101961.16;4910275;28;128439;-63
2022/03/26 08:15:48;;;;;;;;;;;;;;;24.60;39.92;101957.94;4933837;28;128855;-66
2022/03/26 08:18:16;;;;;;;;;;;;;;;25.25;39.67;101955.97;4927760;28;122758;-62
2022/03/26 08:20:45;;;;;;;;;;;;;;;25.88;39.15;101961.66;4931857;28;99105;-68
2022/03/26 08:23:11;;;;;;;;;;;;;;;26.46;38.68;101956.34;4915494;28;98764;-62
2022/03/26 08:28:22;;;;;;;;;;;;;;;27.43;38.17;101950.16;4928595;28;97982;-63
2022/03/26 08:30:48;;;;;;;;;;;;;;;27.78;38.00;101953.25;4908770;28;127338;-67
2022/03/26 08:33:15;;;;;;;;;;;;;;;28.10;37.81;101954.25;4924971;28;127504;-67
2022/03/26 08:35:41;;;;;;;;;;;;;;;28.38;37.99;101950.69;4928818;28;98527;-62
2022/03/26 08:38:07;;;;;;;;;;;;;;;28.62;38.00;101956.13;4929861;28;97822;-66
2022/03/26 08:40:34;;;;;;;;;;;;;;;28.88;38.02;101952.03;4934524;28;99769;-62
2022/03/26 08:43:00;;;;;;;;;;;;;;;29.13;37.72;101949.13;4932859;28;98678;-66
2022/03/26 08:45:26;;;;;;;;;;;;;;;29.42;37.82;101951.41;4931737;28;98145;-66
2022/03/26 08:47:52;;;;;;;;;;;;;;;29.75;37.76;101939.06;4929247;28;98141;-66
2022/03/26 08:50:18;;;;;;;;;;;;;;;30.09;37.72;101932.66;4934322;28;98595;-62
2022/03/26 08:52:47;;;;;;;;;;;;;;;30.43;37.31;101921.06;4931515;28;128527;-67
2022/03/26 08:55:13;;;;;;;;;;;;;;;30.81;37.09;101920.16;4931382;28;98462;-66
2022/03/26 08:57:40;;;;;;;;;;;;;;;31.16;37.28;101914.38;4925852;28;120566;-63
2022/03/26 09:00:06;;;;;;;;;;;;;;;31.53;36.90;101913.78;4927766;28;121393;-68
2022/03/26 09:02:32;;;;;;;;;;;;;;;31.92;36.83;101908.75;4930331;28;125451;-67
2022/03/26 09:04:58;;;;;;;;;;;;;;;32.30;36.68;101912.34;4933674;28;127448;-63
2022/03/26 09:07:24;;;;;;;;;;;;;;;32.66;36.57;101913.56;4928182;28;122549;-66
2022/03/26 09:09:50;;;;;;;;;;;;;;;33.04;36.26;101907.91;4933968;28;98705;-66
2022/03/26 09:12:16;;;;;;;;;;;;;;;33.40;36.38;101909.72;4930352;28;98592;-66
2022/03/26 09:14:43;;;;;;;;;;;;;;;33.76;35.66;101918.34;4934233;28;97824;-68
2022/03/26 09:17:09;;;;;;;;;;;;;;;34.10;35.47;101913.31;4934521;28;98046;-66
2022/03/26 09:19:35;;;;;;;;;;;;;;;34.41;35.56;101920.19;4930303;28;98890;-63
2022/03/26 09:22:02;;;;;;;;;;;;;;;34.75;35.52;101905.84;4930947;28;123524;-63
2022/03/26 09:24:28;;;;;;;;;;;;;;;35.08;35.29;101909.47;4909084;28;125670;-67
2022/03/26 09:26:54;;;;;;;;;;;;;;;35.41;34.66;101903.41;4933516;28;97729;-67
2022/03/26 09:29:19;;;;;;;;;;;;;;;35.79;34.27;101903.69;4920644;28;127130;-68
2022/03/26 09:31:45;;;;;;;;;;;;;;;36.18;34.27;101899.91;4868854;28;1815536;-66
2022/03/26 09:34:11;;;;;;;;;;;;;;;36.57;33.84;101893.25;4935431;28;98306;-63
2022/03/26 09:36:37;;;;;;;;;;;;;;;36.92;33.62;101889.34;4933720;28;122238;-64
2022/03/26 09:39:03;;;;;;;;;;;;;;;37.25;33.47;101889.84;4930123;28;98379;-63
2022/03/26 09:41:31;;;;;;;;;;;;;;;37.61;33.16;101892.25;4930799;28;125839;-66
2022/03/26 09:43:57;;;;;;;;;;;;;;;37.92;32.85;101884.66;4934094;28;98373;-66
2022/03/26 09:46:24;;;;;;;;;;;;;;;38.21;32.89;101870.97;4933429;28;98054;-66
2022/03/26 09:48:50;;;;;;;;;;;;;;;38.53;32.19;101885.38;4932566;28;98211;-68
2022/03/26 09:51:18;;;;;;;;;;;;;;;38.77;32.21;101877.72;4925328;28;127876;-66
2022/03/26 09:53:44;;;;;;;;;;;;;;;39.11;31.50;101870.31;4910165;28;98021;-63
2022/03/26 09:56:10;;;;;;;;;;;;;;;39.47;31.30;101870.41;4933915;28;98128;-66
2022/03/26 09:58:36;;;;;;;;;;;;;;;39.88;30.95;101867.09;4930464;28;98685;-66
2022/03/26 10:01:02;;;;;;;;;;;;;;;40.36;30.85;101859.94;4934317;28;127734;-64
2022/03/26 10:03:28;;;;;;;;;;;;;;;40.81;30.38;101861.28;4912115;28;122386;-63
2022/03/26 10:06:04;;;;;;;;;;;;;;;41.27;30.08;101865.69;4934754;28;111420;-64
2022/03/26 10:08:38;;;;;;;;;;;;;;;41.77;29.62;101858.53;4924175;28;99039;-63
2022/03/26 10:11:04;;;;;;;;;;;;;;;42.24;29.36;101857.91;4930845;28;98202;-64
2022/03/26 10:13:40;;;;;;;;;;;;;;;42.67;28.64;101847.19;4911516;28;107934;-66
2022/03/26 10:16:08;;;;;;;;;;;;;;;43.17;28.52;101843.38;4935475;28;98234;-64
2022/03/26 10:18:38;;;;;;;;;;;;;;;43.70;28.20;101831.22;4929459;28;99044;-63
2022/03/26 10:21:07;;;;;;;;;;;;;;;44.42;27.25;101834.81;4925287;28;98635;-63
2022/03/26 10:23:33;;;;;;;;;;;;;;;45.25;26.56;101838.47;4934724;28;98250;-64
2022/03/26 10:26:05;;;;;;;;;;;;;;;46.15;25.63;101832.91;4933808;28;98071;-62
2022/03/26 10:28:31;;;;;;;;;;;;;;;46.59;25.22;101825.84;4929427;28;106778;-62
2022/03/26 10:34:07;;;;;;;;;;;;;;;47.28;25.02;101827.38;4910254;28;98280;-65
2022/03/26 10:36:41;;;;;;;;;;;;;;;47.40;24.95;101822.69;4936099;28;97802;-62
2022/03/26 10:39:14;;;;;;;;;;;;;;;47.54;24.85;101809.69;4928036;28;98346;-62
2022/03/26 10:41:40;;;;;;;;;;;;;;;47.98;24.43;101806.72;4937784;28;99310;-62
2022/03/26 10:44:10;;;;;;;;;;;;;;;48.35;23.95;101809.06;4935162;28;127642;-62
2022/03/26 10:46:47;;;;;;;;;;;;;;;48.58;23.71;101795.81;4912620;28;98089;-62
2022/03/26 10:49:14;;;;;;;;;;;;;;;48.58;23.64;101810.91;4925085;28;98729;-62
2022/03/26 10:51:41;;;;;;;;;;;;;;;48.54;23.83;101800.97;4935634;28;125201;-65
2022/03/26 10:54:13;;;;;;;;;;;;;;;48.35;23.95;101792.69;4933636;28;98007;-62
2022/03/26 10:56:40;;;;;;;;;;;;;;;47.95;23.83;101793.44;4936509;28;98050;-62
2022/03/26 10:59:06;;;;;;;;;;;;;;;47.66;24.32;101780.03;4937591;28;98383;-62
2022/03/26 11:01:32;;;;;;;;;;;;;;;47.20;24.70;101778.53;4935858;28;98986;-66
2022/03/26 11:03:58;;;;;;;;;;;;;;;47.05;24.38;101780.59;4929701;28;119612;-64
2022/03/26 11:06:25;;;;;;;;;;;;;;;47.04;24.42;101781.09;4937600;28;104320;-64
2022/03/26 11:08:51;;;;;;;;;;;;;;;47.10;24.38;101770.56;4929781;28;98650;-67
2022/03/26 11:11:18;;;;;;;;;;;;;;;47.31;24.19;101774.28;4935360;28;98661;-64
2022/03/26 11:13:53;;;;;;;;;;;;;;;47.61;23.46;101778.66;4913929;28;99199;-64
2022/03/26 11:16:41;;;;;;;;;;;;;;;47.82;23.37;101765.22;4919605;28;98426;-65
2022/03/26 11:19:33;;;;;;;;;;;;;;;47.89;23.43;101766.88;4935867;28;98253;-66
2022/03/26 11:22:23;;;;;;;;;;;;;;;47.67;23.21;101759.53;4928588;28;98804;-63
2022/03/26 11:25:11;;;;;;;;;;;;;;;47.23;23.93;101756.78;4900929;28;126775;-68
2022/03/26 11:28:09;;;;;;;;;;;;;;;46.59;22.83;101755.38;4931175;28;98175;-67
2022/03/26 11:30:47;;;;;;;;;;;;;;;45.75;22.24;101748.66;4931347;28;98083;-64
2022/03/26 11:33:15;;;;;;;;;;;;;;;45.03;21.89;101741.94;4929386;28;98413;-67
2022/03/26 11:35:57;;;;;;;;;;;;;;;44.29;21.59;101738.38;4936274;28;98561;-64
2022/03/26 11:38:24;;;;;;;;;;;;;;;43.58;21.40;101731.56;4931871;28;98070;-68
2022/03/26 11:41:11;;;;;;;;;;;;;;;43.03;21.69;101728.41;4936163;28;126472;-67
2022/03/26 11:43:43;;;;;;;;;;;;;;;42.44;21.71;101729.41;4936960;28;128055;-63
2022/03/26 11:52:16;;;;;;;;;;;;;;;41.02;21.87;101727.88;4918726;28;98704;-63
2022/03/26 11:54:42;;;;;;;;;;;;;;;40.73;21.50;101725.06;4936371;28;98812;-63
2022/03/26 11:57:22;;;;;;;;;;;;;;;40.46;21.75;101734.66;4932897;28;97753;-63
2022/03/26 11:59:48;;;;;;;;;;;;;;;40.15;21.45;101728.63;4931635;28;98093;-63
2022/03/26 12:02:23;;;;;;;;;;;;;;;39.86;21.66;101728.53;4916132;28;105641;-66
2022/03/26 12:08:15;;;;;;;;;;;;;;;39.25;21.49;101735.53;4911537;28;97947;-63
2022/03/26 12:10:41;;;;;;;;;;;;;;;38.97;22.38;101722.03;4936733;28;98013;-62
2022/03/26 12:13:08;;;;;;;;;;;;;;;38.71;22.01;101713.28;4934248;28;98664;-66
2022/03/26 12:15:34;;;;;;;;;;;;;;;38.50;21.84;101714.47;4926442;28;98334;-63
2022/03/26 12:18:10;;;;;;;;;;;;;;;37.96;21.94;101720.22;4929646;28;98735;-66
2022/03/26 12:20:38;;;;;;;;;;;;;;;37.94;21.97;101703.00;4918256;28;98591;-66
2022/03/26 12:23:08;;;;;;;;;;;;;;;37.95;21.96;101707.38;4934076;28;98264;-66
2022/03/26 12:25:36;;;;;;;;;;;;;;;37.88;21.86;101709.53;4926941;28;98527;-66
2022/03/26 12:28:02;;;;;;;;;;;;;;;37.88;21.63;101713.13;4929723;28;98256;-65
2022/03/26 12:30:28;;;;;;;;;;;;;;;37.59;22.00;101715.56;4911771;28;99275;-62
2022/03/26 12:32:55;;;;;;;;;;;;;;;37.03;22.39;101696.25;4915928;28;128741;-63
2022/03/26 12:35:21;;;;;;;;;;;;;;;36.93;21.85;101699.16;4917225;28;98392;-66
2022/03/26 12:37:50;;;;;;;;;;;;;;;36.97;21.85;101694.31;4916517;28;98206;-66
2022/03/26 12:40:16;;;;;;;;;;;;;;;36.37;22.25;101702.16;4910688;28;97914;-62
2022/03/26 12:42:42;;;;;;;;;;;;;;;35.79;22.34;101698.22;4909661;28;98459;-62
2022/03/26 12:45:15;;;;;;;;;;;;;;;35.53;22.61;101691.19;4915789;28;128099;-62
2022/03/26 12:47:45;;;;;;;;;;;;;;;35.11;22.41;101704.19;4915970;28;100096;-62